sensor_id;sensor_type;location;lat;lon;timestamp;P1;durP1;ratioP1;P2;durP2;ratioP2
34497;SDS011;20744;50.938;7.286;2023-11-18T00:01:21;86.55;;;27.20;;
34497;SDS011;20744;50.938;7.286;2023-11-18T00:03:48;91.53;;;26.35;;
34497;SDS011;20744;50.938;7.286;2023-11-18T00:06:15;77.97;;;24.95;;
34497;SDS011;20744;50.938;7.286;2023-11-18T00:08:44;96.97;;;26.15;;
34497;SDS011;20744;50.938;7.286;2023-11-18T00:11:12;113.85;;;26.42;;
34497;SDS011;20744;50.938;7.286;2023-11-18T00:13:39;110.22;;;26.98;;
34497;SDS011;20744;50.938;7.286;2023-11-18T00:16:07;102.72;;;26.13;;
34497;SDS011;20744;50.938;7.286;2023-11-18T00:18:37;103.47;;;27.02;;
34497;SDS011;20744;50.938;7.286;2023-11-18T00:21:05;97.32;;;25.73;;
34497;SDS011;20744;50.938;7.286;2023-11-18T00:23:32;100.75;;;25.75;;
34497;SDS011;20744;50.938;7.286;2023-11-18T00:26:04;79.18;;;25.38;;
34497;SDS011;20744;50.938;7.286;2023-11-18T00:28:32;95.25;;;24.90;;
34497;SDS011;20744;50.938;7.286;2023-11-18T00:30:59;84.75;;;24.73;;
34497;SDS011;20744;50.938;7.286;2023-11-18T00:33:26;89.82;;;25.60;;
34497;SDS011;20744;50.938;7.286;2023-11-18T00:35:53;79.10;;;25.42;;
34497;SDS011;20744;50.938;7.286;2023-11-18T00:38:20;96.68;;;26.42;;
34497;SDS011;20744;50.938;7.286;2023-11-18T00:40:47;84.68;;;24.83;;
34497;SDS011;20744;50.938;7.286;2023-11-18T00:43:16;81.57;;;24.65;;
34497;SDS011;20744;50.938;7.286;2023-11-18T00:45:43;71.57;;;23.42;;
34497;SDS011;20744;50.938;7.286;2023-11-18T00:48:10;84.75;;;24.35;;
34497;SDS011;20744;50.938;7.286;2023-11-18T00:50:37;85.40;;;25.73;;
34497;SDS011;20744;50.938;7.286;2023-11-18T00:53:03;70.60;;;23.95;;
34497;SDS011;20744;50.938;7.286;2023-11-18T00:55:31;74.47;;;23.90;;
34497;SDS011;20744;50.938;7.286;2023-11-18T00:57:58;83.93;;;24.70;;
34497;SDS011;20744;50.938;7.286;2023-11-18T01:00:26;66.53;;;22.13;;
34497;SDS011;20744;50.938;7.286;2023-11-18T01:02:54;72.28;;;23.65;;
34497;SDS011;20744;50.938;7.286;2023-11-18T01:05:21;73.90;;;23.67;;
34497;SDS011;20744;50.938;7.286;2023-11-18T01:07:49;81.55;;;25.00;;
34497;SDS011;20744;50.938;7.286;2023-11-18T01:10:16;77.95;;;25.63;;
34497;SDS011;20744;50.938;7.286;2023-11-18T01:12:44;81.05;;;24.85;;
34497;SDS011;20744;50.938;7.286;2023-11-18T01:15:11;73.55;;;24.85;;
34497;SDS011;20744;50.938;7.286;2023-11-18T01:17:40;77.60;;;23.50;;
34497;SDS011;20744;50.938;7.286;2023-11-18T01:20:07;80.57;;;24.77;;
34497;SDS011;20744;50.938;7.286;2023-11-18T01:22:36;80.03;;;25.08;;
34497;SDS011;20744;50.938;7.286;2023-11-18T01:25:04;88.82;;;26.40;;
34497;SDS011;20744;50.938;7.286;2023-11-18T01:27:33;79.35;;;26.35;;
34497;SDS011;20744;50.938;7.286;2023-11-18T01:30:00;89.60;;;26.10;;
34497;SDS011;20744;50.938;7.286;2023-11-18T01:32:29;68.68;;;24.13;;
34497;SDS011;20744;50.938;7.286;2023-11-18T01:34:58;67.05;;;23.33;;
34497;SDS011;20744;50.938;7.286;2023-11-18T01:37:25;72.57;;;23.55;;
34497;SDS011;20744;50.938;7.286;2023-11-18T01:39:52;66.32;;;22.65;;
34497;SDS011;20744;50.938;7.286;2023-11-18T01:42:19;67.15;;;23.33;;
34497;SDS011;20744;50.938;7.286;2023-11-18T01:44:46;68.25;;;22.60;;
34497;SDS011;20744;50.938;7.286;2023-11-18T01:47:13;67.65;;;23.55;;
34497;SDS011;20744;50.938;7.286;2023-11-18T01:49:41;72.28;;;23.67;;
34497;SDS011;20744;50.938;7.286;2023-11-18T01:52:10;67.97;;;23.65;;
34497;SDS011;20744;50.938;7.286;2023-11-18T01:54:37;63.28;;;23.30;;
34497;SDS011;20744;50.938;7.286;2023-11-18T01:57:05;63.53;;;22.25;;
34497;SDS011;20744;50.938;7.286;2023-11-18T01:59:34;66.22;;;22.90;;
34497;SDS011;20744;50.938;7.286;2023-11-18T02:02:03;68.65;;;24.45;;
34497;SDS011;20744;50.938;7.286;2023-11-18T02:04:31;68.70;;;23.73;;
34497;SDS011;20744;50.938;7.286;2023-11-18T02:06:58;70.05;;;24.40;;
34497;SDS011;20744;50.938;7.286;2023-11-18T02:09:30;67.18;;;24.58;;
34497;SDS011;20744;50.938;7.286;2023-11-18T02:11:59;69.93;;;23.95;;
34497;SDS011;20744;50.938;7.286;2023-11-18T02:14:34;65.15;;;23.33;;
34497;SDS011;20744;50.938;7.286;2023-11-18T02:17:06;74.32;;;24.92;;
34497;SDS011;20744;50.938;7.286;2023-11-18T02:19:35;67.63;;;24.80;;
34497;SDS011;20744;50.938;7.286;2023-11-18T02:22:05;69.00;;;25.45;;
34497;SDS011;20744;50.938;7.286;2023-11-18T02:24:34;71.97;;;24.67;;
34497;SDS011;20744;50.938;7.286;2023-11-18T02:27:04;66.35;;;24.05;;
34497;SDS011;20744;50.938;7.286;2023-11-18T02:29:32;75.30;;;25.35;;
34497;SDS011;20744;50.938;7.286;2023-11-18T02:32:03;80.55;;;27.35;;
34497;SDS011;20744;50.938;7.286;2023-11-18T02:34:35;77.05;;;25.90;;
34497;SDS011;20744;50.938;7.286;2023-11-18T02:37:13;74.50;;;24.25;;
34497;SDS011;20744;50.938;7.286;2023-11-18T02:39:42;74.40;;;24.40;;
34497;SDS011;20744;50.938;7.286;2023-11-18T02:42:14;76.85;;;25.15;;
34497;SDS011;20744;50.938;7.286;2023-11-18T02:44:41;71.93;;;24.35;;
34497;SDS011;20744;50.938;7.286;2023-11-18T02:47:09;65.22;;;23.83;;
34497;SDS011;20744;50.938;7.286;2023-11-18T02:49:37;65.40;;;23.30;;
34497;SDS011;20744;50.938;7.286;2023-11-18T02:52:04;70.57;;;24.55;;
34497;SDS011;20744;50.938;7.286;2023-11-18T02:54:34;74.13;;;24.90;;
34497;SDS011;20744;50.938;7.286;2023-11-18T02:57:02;67.03;;;23.42;;
34497;SDS011;20744;50.938;7.286;2023-11-18T02:59:30;61.38;;;23.08;;
34497;SDS011;20744;50.938;7.286;2023-11-18T03:01:58;66.80;;;22.88;;
34497;SDS011;20744;50.938;7.286;2023-11-18T03:04:26;66.55;;;24.15;;
34497;SDS011;20744;50.938;7.286;2023-11-18T03:06:53;55.45;;;22.75;;
34497;SDS011;20744;50.938;7.286;2023-11-18T03:09:20;55.33;;;21.90;;
34497;SDS011;20744;50.938;7.286;2023-11-18T03:11:47;61.15;;;22.13;;
34497;SDS011;20744;50.938;7.286;2023-11-18T03:14:16;64.85;;;22.88;;
34497;SDS011;20744;50.938;7.286;2023-11-18T03:16:47;58.03;;;22.77;;
34497;SDS011;20744;50.938;7.286;2023-11-18T03:19:14;61.35;;;23.58;;
34497;SDS011;20744;50.938;7.286;2023-11-18T03:21:41;56.38;;;20.33;;
34497;SDS011;20744;50.938;7.286;2023-11-18T03:24:08;56.92;;;22.00;;
34497;SDS011;20744;50.938;7.286;2023-11-18T03:26:35;66.95;;;24.25;;
34497;SDS011;20744;50.938;7.286;2023-11-18T03:29:02;57.75;;;21.52;;
34497;SDS011;20744;50.938;7.286;2023-11-18T03:31:29;54.70;;;21.15;;
34497;SDS011;20744;50.938;7.286;2023-11-18T03:33:57;59.10;;;21.83;;
34497;SDS011;20744;50.938;7.286;2023-11-18T03:36:24;55.67;;;21.92;;
34497;SDS011;20744;50.938;7.286;2023-11-18T03:38:51;55.70;;;20.77;;
34497;SDS011;20744;50.938;7.286;2023-11-18T03:41:18;50.25;;;20.90;;
34497;SDS011;20744;50.938;7.286;2023-11-18T03:43:48;52.63;;;19.92;;
34497;SDS011;20744;50.938;7.286;2023-11-18T03:46:15;45.90;;;19.77;;
34497;SDS011;20744;50.938;7.286;2023-11-18T03:48:43;50.80;;;19.60;;
34497;SDS011;20744;50.938;7.286;2023-11-18T03:51:12;47.95;;;18.55;;
34497;SDS011;20744;50.938;7.286;2023-11-18T03:53:41;47.97;;;19.05;;
34497;SDS011;20744;50.938;7.286;2023-11-18T03:56:08;44.28;;;18.35;;
34497;SDS011;20744;50.938;7.286;2023-11-18T03:58:35;45.55;;;18.67;;
34497;SDS011;20744;50.938;7.286;2023-11-18T04:01:02;47.97;;;20.23;;
34497;SDS011;20744;50.938;7.286;2023-11-18T04:03:31;48.55;;;19.13;;
34497;SDS011;20744;50.938;7.286;2023-11-18T04:05:58;44.70;;;18.33;;
34497;SDS011;20744;50.938;7.286;2023-11-18T04:08:26;51.90;;;20.27;;
34497;SDS011;20744;50.938;7.286;2023-11-18T04:10:53;48.67;;;19.65;;
34497;SDS011;20744;50.938;7.286;2023-11-18T04:13:20;56.60;;;18.98;;
34497;SDS011;20744;50.938;7.286;2023-11-18T04:15:47;53.70;;;19.83;;
34497;SDS011;20744;50.938;7.286;2023-11-18T04:18:14;49.47;;;20.58;;
34497;SDS011;20744;50.938;7.286;2023-11-18T04:20:40;48.22;;;20.38;;
34497;SDS011;20744;50.938;7.286;2023-11-18T04:23:07;50.08;;;20.70;;
34497;SDS011;20744;50.938;7.286;2023-11-18T04:25:38;47.45;;;19.58;;
34497;SDS011;20744;50.938;7.286;2023-11-18T04:28:05;47.35;;;18.73;;
34497;SDS011;20744;50.938;7.286;2023-11-18T04:30:32;52.03;;;20.02;;
34497;SDS011;20744;50.938;7.286;2023-11-18T04:32:59;44.92;;;19.15;;
34497;SDS011;20744;50.938;7.286;2023-11-18T04:35:26;47.97;;;19.50;;
34497;SDS011;20744;50.938;7.286;2023-11-18T04:37:53;48.40;;;19.60;;
34497;SDS011;20744;50.938;7.286;2023-11-18T04:40:20;44.55;;;18.88;;
34497;SDS011;20744;50.938;7.286;2023-11-18T04:42:49;51.13;;;18.48;;
34497;SDS011;20744;50.938;7.286;2023-11-18T04:45:16;45.30;;;19.80;;
34497;SDS011;20744;50.938;7.286;2023-11-18T04:47:43;47.15;;;18.65;;
34497;SDS011;20744;50.938;7.286;2023-11-18T04:50:10;44.72;;;17.90;;
34497;SDS011;20744;50.938;7.286;2023-11-18T04:52:37;43.05;;;18.45;;
34497;SDS011;20744;50.938;7.286;2023-11-18T04:55:04;42.40;;;18.60;;
34497;SDS011;20744;50.938;7.286;2023-11-18T04:57:32;40.88;;;19.02;;
34497;SDS011;20744;50.938;7.286;2023-11-18T05:00:02;40.53;;;16.95;;
34497;SDS011;20744;50.938;7.286;2023-11-18T05:02:35;42.38;;;17.55;;
34497;SDS011;20744;50.938;7.286;2023-11-18T05:05:03;41.63;;;18.67;;
34497;SDS011;20744;50.938;7.286;2023-11-18T05:07:31;40.58;;;18.33;;
34497;SDS011;20744;50.938;7.286;2023-11-18T05:09:58;46.22;;;18.83;;
34497;SDS011;20744;50.938;7.286;2023-11-18T05:12:25;41.28;;;17.65;;
34497;SDS011;20744;50.938;7.286;2023-11-18T05:14:54;42.08;;;17.77;;
34497;SDS011;20744;50.938;7.286;2023-11-18T05:17:23;39.17;;;17.05;;
34497;SDS011;20744;50.938;7.286;2023-11-18T05:19:51;42.08;;;17.45;;
34497;SDS011;20744;50.938;7.286;2023-11-18T05:22:18;44.05;;;18.83;;
34497;SDS011;20744;50.938;7.286;2023-11-18T05:24:46;39.70;;;17.88;;
34497;SDS011;20744;50.938;7.286;2023-11-18T05:27:13;41.72;;;18.13;;
34497;SDS011;20744;50.938;7.286;2023-11-18T05:29:42;41.00;;;17.95;;
34497;SDS011;20744;50.938;7.286;2023-11-18T05:32:10;43.60;;;18.02;;
34497;SDS011;20744;50.938;7.286;2023-11-18T05:34:39;35.78;;;17.73;;
34497;SDS011;20744;50.938;7.286;2023-11-18T05:37:07;40.85;;;17.85;;
34497;SDS011;20744;50.938;7.286;2023-11-18T05:39:34;41.95;;;18.42;;
34497;SDS011;20744;50.938;7.286;2023-11-18T05:42:08;42.08;;;18.30;;
34497;SDS011;20744;50.938;7.286;2023-11-18T05:44:35;43.92;;;18.13;;
34497;SDS011;20744;50.938;7.286;2023-11-18T05:47:04;42.20;;;18.92;;
34497;SDS011;20744;50.938;7.286;2023-11-18T05:49:32;42.47;;;19.17;;
34497;SDS011;20744;50.938;7.286;2023-11-18T05:52:00;39.08;;;19.13;;
34497;SDS011;20744;50.938;7.286;2023-11-18T05:54:28;37.42;;;17.25;;
34497;SDS011;20744;50.938;7.286;2023-11-18T05:56:55;43.03;;;18.98;;
34497;SDS011;20744;50.938;7.286;2023-11-18T05:59:24;44.78;;;19.92;;
34497;SDS011;20744;50.938;7.286;2023-11-18T06:01:51;47.20;;;20.38;;
34497;SDS011;20744;50.938;7.286;2023-11-18T06:04:19;43.13;;;19.33;;
34497;SDS011;20744;50.938;7.286;2023-11-18T06:06:46;45.88;;;20.95;;
34497;SDS011;20744;50.938;7.286;2023-11-18T06:09:15;43.65;;;20.52;;
34497;SDS011;20744;50.938;7.286;2023-11-18T06:11:46;47.53;;;20.67;;
34497;SDS011;20744;50.938;7.286;2023-11-18T06:14:14;44.25;;;19.73;;
34497;SDS011;20744;50.938;7.286;2023-11-18T06:16:42;42.38;;;19.95;;
34497;SDS011;20744;50.938;7.286;2023-11-18T06:19:09;42.53;;;19.50;;
34497;SDS011;20744;50.938;7.286;2023-11-18T06:21:36;49.75;;;21.52;;
34497;SDS011;20744;50.938;7.286;2023-11-18T06:24:03;47.17;;;20.83;;
34497;SDS011;20744;50.938;7.286;2023-11-18T06:26:32;47.28;;;20.48;;
34497;SDS011;20744;50.938;7.286;2023-11-18T06:29:01;43.97;;;19.90;;
34497;SDS011;20744;50.938;7.286;2023-11-18T06:31:29;49.03;;;20.25;;
34497;SDS011;20744;50.938;7.286;2023-11-18T06:33:56;43.83;;;19.48;;
34497;SDS011;20744;50.938;7.286;2023-11-18T06:36:23;49.55;;;20.05;;
34497;SDS011;20744;50.938;7.286;2023-11-18T06:38:52;49.88;;;21.52;;
34497;SDS011;20744;50.938;7.286;2023-11-18T06:41:21;49.20;;;21.77;;
34497;SDS011;20744;50.938;7.286;2023-11-18T06:43:52;50.22;;;21.52;;
34497;SDS011;20744;50.938;7.286;2023-11-18T06:46:26;43.85;;;21.30;;
34497;SDS011;20744;50.938;7.286;2023-11-18T06:48:56;49.38;;;21.48;;
34497;SDS011;20744;50.938;7.286;2023-11-18T06:51:25;45.58;;;21.55;;
34497;SDS011;20744;50.938;7.286;2023-11-18T06:53:53;49.92;;;21.33;;
34497;SDS011;20744;50.938;7.286;2023-11-18T06:56:21;47.30;;;20.80;;
34497;SDS011;20744;50.938;7.286;2023-11-18T06:58:48;47.90;;;20.75;;
34497;SDS011;20744;50.938;7.286;2023-11-18T07:01:16;46.33;;;22.27;;
34497;SDS011;20744;50.938;7.286;2023-11-18T07:03:43;44.25;;;21.33;;
34497;SDS011;20744;50.938;7.286;2023-11-18T07:06:16;39.63;;;19.73;;
34497;SDS011;20744;50.938;7.286;2023-11-18T07:08:47;45.33;;;20.80;;
34497;SDS011;20744;50.938;7.286;2023-11-18T07:11:14;48.05;;;19.77;;
34497;SDS011;20744;50.938;7.286;2023-11-18T07:13:41;45.00;;;19.42;;
34497;SDS011;20744;50.938;7.286;2023-11-18T07:16:09;47.63;;;20.35;;
34497;SDS011;20744;50.938;7.286;2023-11-18T07:18:37;48.13;;;20.30;;
34497;SDS011;20744;50.938;7.286;2023-11-18T07:21:04;40.42;;;19.95;;
34497;SDS011;20744;50.938;7.286;2023-11-18T07:23:32;51.83;;;21.23;;
34497;SDS011;20744;50.938;7.286;2023-11-18T07:25:59;44.80;;;20.48;;
34497;SDS011;20744;50.938;7.286;2023-11-18T07:28:28;52.28;;;27.48;;
34497;SDS011;20744;50.938;7.286;2023-11-18T07:30:56;44.92;;;21.95;;
34497;SDS011;20744;50.938;7.286;2023-11-18T07:33:24;45.53;;;21.30;;
34497;SDS011;20744;50.938;7.286;2023-11-18T07:35:53;44.15;;;20.08;;
34497;SDS011;20744;50.938;7.286;2023-11-18T07:38:20;43.17;;;19.85;;
34497;SDS011;20744;50.938;7.286;2023-11-18T07:40:47;46.60;;;21.02;;
34497;SDS011;20744;50.938;7.286;2023-11-18T07:43:14;43.75;;;20.23;;
34497;SDS011;20744;50.938;7.286;2023-11-18T07:45:41;46.50;;;20.52;;
34497;SDS011;20744;50.938;7.286;2023-11-18T07:48:08;43.38;;;19.40;;
34497;SDS011;20744;50.938;7.286;2023-11-18T07:50:37;44.72;;;19.58;;
34497;SDS011;20744;50.938;7.286;2023-11-18T07:53:07;41.67;;;19.60;;
34497;SDS011;20744;50.938;7.286;2023-11-18T07:55:34;41.35;;;18.83;;
34497;SDS011;20744;50.938;7.286;2023-11-18T07:58:04;52.20;;;21.30;;
34497;SDS011;20744;50.938;7.286;2023-11-18T08:00:36;56.15;;;19.15;;
34497;SDS011;20744;50.938;7.286;2023-11-18T08:03:04;38.08;;;18.27;;
34497;SDS011;20744;50.938;7.286;2023-11-18T08:05:32;40.90;;;18.77;;
34497;SDS011;20744;50.938;7.286;2023-11-18T08:07:59;39.40;;;17.98;;
34497;SDS011;20744;50.938;7.286;2023-11-18T08:10:27;37.95;;;18.38;;
34497;SDS011;20744;50.938;7.286;2023-11-18T08:12:57;35.28;;;17.50;;
34497;SDS011;20744;50.938;7.286;2023-11-18T08:15:24;41.13;;;18.80;;
34497;SDS011;20744;50.938;7.286;2023-11-18T08:17:54;36.67;;;17.92;;
34497;SDS011;20744;50.938;7.286;2023-11-18T08:20:21;40.17;;;18.92;;
34497;SDS011;20744;50.938;7.286;2023-11-18T08:22:50;34.72;;;18.13;;
34497;SDS011;20744;50.938;7.286;2023-11-18T08:25:17;34.40;;;16.20;;
34497;SDS011;20744;50.938;7.286;2023-11-18T08:27:46;44.88;;;23.85;;
34497;SDS011;20744;50.938;7.286;2023-11-18T08:30:13;41.45;;;19.58;;
34497;SDS011;20744;50.938;7.286;2023-11-18T08:32:43;34.50;;;17.35;;
34497;SDS011;20744;50.938;7.286;2023-11-18T08:35:11;31.60;;;16.17;;
34497;SDS011;20744;50.938;7.286;2023-11-18T08:37:39;34.95;;;16.75;;
34497;SDS011;20744;50.938;7.286;2023-11-18T08:40:07;37.35;;;17.17;;
34497;SDS011;20744;50.938;7.286;2023-11-18T08:42:39;33.60;;;16.60;;
34497;SDS011;20744;50.938;7.286;2023-11-18T08:45:14;31.08;;;15.70;;
34497;SDS011;20744;50.938;7.286;2023-11-18T08:47:42;30.77;;;16.52;;
34497;SDS011;20744;50.938;7.286;2023-11-18T08:50:10;31.85;;;16.05;;
34497;SDS011;20744;50.938;7.286;2023-11-18T08:52:38;34.05;;;15.30;;
34497;SDS011;20744;50.938;7.286;2023-11-18T08:55:09;26.45;;;15.27;;
34497;SDS011;20744;50.938;7.286;2023-11-18T08:57:43;32.50;;;15.83;;
34497;SDS011;20744;50.938;7.286;2023-11-18T09:00:19;31.17;;;16.52;;
34497;SDS011;20744;50.938;7.286;2023-11-18T09:03:03;29.40;;;16.10;;
34497;SDS011;20744;50.938;7.286;2023-11-18T09:05:32;31.58;;;16.27;;
34497;SDS011;20744;50.938;7.286;2023-11-18T09:08:01;27.40;;;15.73;;
34497;SDS011;20744;50.938;7.286;2023-11-18T09:10:31;28.90;;;15.52;;
34497;SDS011;20744;50.938;7.286;2023-11-18T09:12:58;35.65;;;16.02;;
34497;SDS011;20744;50.938;7.286;2023-11-18T09:15:27;27.98;;;15.27;;
34497;SDS011;20744;50.938;7.286;2023-11-18T09:17:56;28.50;;;16.45;;
34497;SDS011;20744;50.938;7.286;2023-11-18T09:20:24;31.90;;;15.70;;
34497;SDS011;20744;50.938;7.286;2023-11-18T09:22:52;28.85;;;15.52;;
34497;SDS011;20744;50.938;7.286;2023-11-18T09:25:20;29.73;;;14.32;;
34497;SDS011;20744;50.938;7.286;2023-11-18T09:27:48;27.85;;;15.85;;
34497;SDS011;20744;50.938;7.286;2023-11-18T09:30:15;27.13;;;15.07;;
34497;SDS011;20744;50.938;7.286;2023-11-18T09:32:44;23.92;;;14.38;;
34497;SDS011;20744;50.938;7.286;2023-11-18T09:35:13;24.17;;;15.32;;
34497;SDS011;20744;50.938;7.286;2023-11-18T09:37:40;24.80;;;14.02;;
34497;SDS011;20744;50.938;7.286;2023-11-18T09:40:08;25.23;;;14.20;;
34497;SDS011;20744;50.938;7.286;2023-11-18T09:42:37;23.25;;;14.38;;
34497;SDS011;20744;50.938;7.286;2023-11-18T09:45:06;25.80;;;14.40;;
34497;SDS011;20744;50.938;7.286;2023-11-18T09:47:39;26.60;;;14.10;;
34497;SDS011;20744;50.938;7.286;2023-11-18T09:50:16;33.97;;;15.13;;
34497;SDS011;20744;50.938;7.286;2023-11-18T09:52:48;22.48;;;13.75;;
34497;SDS011;20744;50.938;7.286;2023-11-18T09:55:19;69.95;;;26.15;;
34497;SDS011;20744;50.938;7.286;2023-11-18T09:57:49;32.90;;;13.88;;
34497;SDS011;20744;50.938;7.286;2023-11-18T10:00:22;31.27;;;15.07;;
34497;SDS011;20744;50.938;7.286;2023-11-18T10:02:53;34.45;;;16.00;;
34497;SDS011;20744;50.938;7.286;2023-11-18T10:05:24;21.70;;;13.07;;
34497;SDS011;20744;50.938;7.286;2023-11-18T10:07:53;34.25;;;13.52;;
34497;SDS011;20744;50.938;7.286;2023-11-18T10:10:22;20.02;;;12.00;;
34497;SDS011;20744;50.938;7.286;2023-11-18T10:12:52;21.08;;;11.68;;
34497;SDS011;20744;50.938;7.286;2023-11-18T10:15:23;16.50;;;10.18;;
34497;SDS011;20744;50.938;7.286;2023-11-18T10:17:51;23.65;;;10.88;;
34497;SDS011;20744;50.938;7.286;2023-11-18T10:20:23;17.40;;;10.52;;
34497;SDS011;20744;50.938;7.286;2023-11-18T10:23:10;17.23;;;10.68;;
34497;SDS011;20744;50.938;7.286;2023-11-18T10:25:37;18.30;;;11.02;;
34497;SDS011;20744;50.938;7.286;2023-11-18T10:28:08;19.83;;;9.75;;
34497;SDS011;20744;50.938;7.286;2023-11-18T10:30:47;18.35;;;9.50;;
34497;SDS011;20744;50.938;7.286;2023-11-18T10:33:15;19.52;;;11.15;;
34497;SDS011;20744;50.938;7.286;2023-11-18T10:35:51;18.13;;;9.57;;
34497;SDS011;20744;50.938;7.286;2023-11-18T10:38:20;14.02;;;9.07;;
34497;SDS011;20744;50.938;7.286;2023-11-18T10:40:50;14.77;;;9.32;;
34497;SDS011;20744;50.938;7.286;2023-11-18T10:43:20;11.77;;;8.23;;
34497;SDS011;20744;50.938;7.286;2023-11-18T10:45:50;14.10;;;7.95;;
34497;SDS011;20744;50.938;7.286;2023-11-18T10:48:17;13.23;;;8.27;;
34497;SDS011;20744;50.938;7.286;2023-11-18T10:50:46;13.73;;;7.68;;
34497;SDS011;20744;50.938;7.286;2023-11-18T10:53:17;13.40;;;7.90;;
34497;SDS011;20744;50.938;7.286;2023-11-18T10:55:46;19.95;;;7.90;;
34497;SDS011;20744;50.938;7.286;2023-11-18T10:58:15;13.32;;;7.25;;
34497;SDS011;20744;50.938;7.286;2023-11-18T11:00:46;10.65;;;7.25;;
34497;SDS011;20744;50.938;7.286;2023-11-18T11:03:13;11.73;;;6.85;;
34497;SDS011;20744;50.938;7.286;2023-11-18T11:05:41;11.10;;;7.03;;
34497;SDS011;20744;50.938;7.286;2023-11-18T11:08:09;8.80;;;6.45;;
34497;SDS011;20744;50.938;7.286;2023-11-18T11:10:40;10.95;;;6.88;;
34497;SDS011;20744;50.938;7.286;2023-11-18T11:13:08;11.82;;;7.07;;
34497;SDS011;20744;50.938;7.286;2023-11-18T11:15:37;12.73;;;7.03;;
34497;SDS011;20744;50.938;7.286;2023-11-18T11:18:08;10.60;;;6.25;;
34497;SDS011;20744;50.938;7.286;2023-11-18T11:20:41;14.45;;;6.65;;
34497;SDS011;20744;50.938;7.286;2023-11-18T11:23:11;11.68;;;6.50;;
34497;SDS011;20744;50.938;7.286;2023-11-18T11:28:15;10.85;;;6.45;;
34497;SDS011;20744;50.938;7.286;2023-11-18T11:30:45;12.30;;;6.55;;
34497;SDS011;20744;50.938;7.286;2023-11-18T11:33:14;10.38;;;6.15;;
34497;SDS011;20744;50.938;7.286;2023-11-18T11:35:46;10.32;;;6.57;;
34497;SDS011;20744;50.938;7.286;2023-11-18T11:38:15;12.88;;;7.65;;
34497;SDS011;20744;50.938;7.286;2023-11-18T11:40:43;10.25;;;6.57;;
34497;SDS011;20744;50.938;7.286;2023-11-18T11:43:14;10.25;;;6.50;;
34497;SDS011;20744;50.938;7.286;2023-11-18T11:45:46;9.35;;;6.07;;
34497;SDS011;20744;50.938;7.286;2023-11-18T11:48:16;11.82;;;6.43;;
34497;SDS011;20744;50.938;7.286;2023-11-18T11:51:00;11.88;;;6.50;;
34497;SDS011;20744;50.938;7.286;2023-11-18T11:53:30;9.23;;;5.97;;
34497;SDS011;20744;50.938;7.286;2023-11-18T11:55:59;17.48;;;6.80;;
34497;SDS011;20744;50.938;7.286;2023-11-18T11:58:33;15.68;;;6.30;;
34497;SDS011;20744;50.938;7.286;2023-11-18T12:01:02;11.57;;;7.03;;
34497;SDS011;20744;50.938;7.286;2023-11-18T12:03:43;10.50;;;6.45;;
34497;SDS011;20744;50.938;7.286;2023-11-18T12:06:12;11.60;;;6.38;;
34497;SDS011;20744;50.938;7.286;2023-11-18T12:08:41;13.73;;;6.82;;
34497;SDS011;20744;50.938;7.286;2023-11-18T12:11:09;13.82;;;6.60;;
34497;SDS011;20744;50.938;7.286;2023-11-18T12:13:39;10.68;;;6.82;;
34497;SDS011;20744;50.938;7.286;2023-11-18T12:16:10;16.15;;;6.75;;
34497;SDS011;20744;50.938;7.286;2023-11-18T12:18:41;13.25;;;6.90;;
34497;SDS011;20744;50.938;7.286;2023-11-18T12:21:09;14.50;;;6.57;;
34497;SDS011;20744;50.938;7.286;2023-11-18T12:26:39;16.37;;;7.30;;
34497;SDS011;20744;50.938;7.286;2023-11-18T12:31:52;16.88;;;6.93;;
34497;SDS011;20744;50.938;7.286;2023-11-18T12:34:19;15.02;;;7.30;;
34497;SDS011;20744;50.938;7.286;2023-11-18T12:39:48;16.25;;;6.82;;
34497;SDS011;20744;50.938;7.286;2023-11-18T12:42:23;16.00;;;7.03;;
34497;SDS011;20744;50.938;7.286;2023-11-18T12:45:06;11.98;;;6.55;;
34497;SDS011;20744;50.938;7.286;2023-11-18T12:47:41;11.88;;;7.05;;
34497;SDS011;20744;50.938;7.286;2023-11-18T12:50:10;11.23;;;6.72;;
34497;SDS011;20744;50.938;7.286;2023-11-18T12:52:48;16.80;;;7.57;;
34497;SDS011;20744;50.938;7.286;2023-11-18T12:55:16;12.05;;;6.75;;
34497;SDS011;20744;50.938;7.286;2023-11-18T12:57:45;13.38;;;6.22;;
34497;SDS011;20744;50.938;7.286;2023-11-18T13:00:13;12.13;;;6.63;;
34497;SDS011;20744;50.938;7.286;2023-11-18T13:02:45;14.43;;;7.10;;
34497;SDS011;20744;50.938;7.286;2023-11-18T13:05:12;13.50;;;6.50;;
34497;SDS011;20744;50.938;7.286;2023-11-18T13:07:39;12.73;;;6.88;;
34497;SDS011;20744;50.938;7.286;2023-11-18T13:10:08;17.17;;;6.80;;
34497;SDS011;20744;50.938;7.286;2023-11-18T13:12:40;14.50;;;6.68;;
34497;SDS011;20744;50.938;7.286;2023-11-18T13:15:10;16.30;;;7.55;;
34497;SDS011;20744;50.938;7.286;2023-11-18T13:17:37;14.93;;;7.57;;
34497;SDS011;20744;50.938;7.286;2023-11-18T13:20:14;16.95;;;7.22;;
34497;SDS011;20744;50.938;7.286;2023-11-18T13:22:42;15.32;;;6.70;;
34497;SDS011;20744;50.938;7.286;2023-11-18T13:25:10;13.57;;;6.50;;
34497;SDS011;20744;50.938;7.286;2023-11-18T13:27:39;14.32;;;6.60;;
34497;SDS011;20744;50.938;7.286;2023-11-18T13:30:07;18.23;;;8.43;;
34497;SDS011;20744;50.938;7.286;2023-11-18T13:32:39;20.67;;;8.88;;
34497;SDS011;20744;50.938;7.286;2023-11-18T13:35:07;14.07;;;7.07;;
34497;SDS011;20744;50.938;7.286;2023-11-18T13:37:37;11.52;;;6.20;;
34497;SDS011;20744;50.938;7.286;2023-11-18T13:40:07;13.52;;;5.35;;
34497;SDS011;20744;50.938;7.286;2023-11-18T13:42:34;9.55;;;5.18;;
34497;SDS011;20744;50.938;7.286;2023-11-18T13:45:04;12.82;;;6.03;;
34497;SDS011;20744;50.938;7.286;2023-11-18T13:47:36;10.40;;;5.28;;
34497;SDS011;20744;50.938;7.286;2023-11-18T13:50:06;8.95;;;4.55;;
34497;SDS011;20744;50.938;7.286;2023-11-18T13:52:33;10.75;;;4.80;;
34497;SDS011;20744;50.938;7.286;2023-11-18T13:55:02;10.30;;;4.70;;
34497;SDS011;20744;50.938;7.286;2023-11-18T13:57:31;7.10;;;4.22;;
34497;SDS011;20744;50.938;7.286;2023-11-18T13:59:59;10.27;;;4.70;;
34497;SDS011;20744;50.938;7.286;2023-11-18T14:02:30;9.40;;;4.20;;
34497;SDS011;20744;50.938;7.286;2023-11-18T14:04:58;9.80;;;4.57;;
34497;SDS011;20744;50.938;7.286;2023-11-18T14:07:26;9.55;;;3.83;;
34497;SDS011;20744;50.938;7.286;2023-11-18T14:09:53;6.85;;;3.67;;
34497;SDS011;20744;50.938;7.286;2023-11-18T14:12:23;12.27;;;4.53;;
34497;SDS011;20744;50.938;7.286;2023-11-18T14:14:52;12.15;;;4.55;;
34497;SDS011;20744;50.938;7.286;2023-11-18T14:17:19;14.27;;;4.38;;
34497;SDS011;20744;50.938;7.286;2023-11-18T14:19:47;9.95;;;4.10;;
34497;SDS011;20744;50.938;7.286;2023-11-18T14:22:14;10.98;;;4.18;;
34497;SDS011;20744;50.938;7.286;2023-11-18T14:24:41;9.18;;;3.78;;
34497;SDS011;20744;50.938;7.286;2023-11-18T14:27:08;7.53;;;3.53;;
34497;SDS011;20744;50.938;7.286;2023-11-18T14:29:37;10.90;;;3.65;;
34497;SDS011;20744;50.938;7.286;2023-11-18T14:32:04;9.68;;;3.88;;
34497;SDS011;20744;50.938;7.286;2023-11-18T14:34:32;10.02;;;3.90;;
34497;SDS011;20744;50.938;7.286;2023-11-18T14:37:00;8.25;;;4.47;;
34497;SDS011;20744;50.938;7.286;2023-11-18T14:39:27;8.15;;;3.85;;
34497;SDS011;20744;50.938;7.286;2023-11-18T14:41:54;9.02;;;4.00;;
34497;SDS011;20744;50.938;7.286;2023-11-18T14:44:22;9.75;;;4.30;;
34497;SDS011;20744;50.938;7.286;2023-11-18T14:46:50;11.25;;;4.10;;